sensor_id;sensor_type;location;lat;lon;timestamp;P1;durP1;ratioP1;P2;durP2;ratioP2
1204;SDS011;592;48.764;9.174;2022-12-07T00:01:15;13.03;;;7.23;;
1204;SDS011;592;48.764;9.174;2022-12-07T00:03:44;12.60;;;7.20;;
1204;SDS011;592;48.764;9.174;2022-12-07T00:06:12;13.90;;;7.60;;
1204;SDS011;592;48.764;9.174;2022-12-07T00:08:42;15.40;;;7.80;;
1204;SDS011;592;48.764;9.174;2022-12-07T00:11:09;14.57;;;8.23;;
1204;SDS011;592;48.764;9.174;2022-12-07T00:13:38;13.03;;;7.53;;
1204;SDS011;592;48.764;9.174;2022-12-07T00:16:06;13.10;;;7.10;;
1204;SDS011;592;48.764;9.174;2022-12-07T00:18:34;10.40;;;6.87;;
1204;SDS011;592;48.764;9.174;2022-12-07T00:21:02;12.23;;;7.70;;
1204;SDS011;592;48.764;9.174;2022-12-07T00:23:30;12.23;;;6.63;;
1204;SDS011;592;48.764;9.174;2022-12-07T00:26:03;12.87;;;7.37;;
1204;SDS011;592;48.764;9.174;2022-12-07T00:28:31;13.13;;;8.07;;
1204;SDS011;592;48.764;9.174;2022-12-07T00:31:02;13.10;;;7.60;;
1204;SDS011;592;48.764;9.174;2022-12-07T00:33:30;10.97;;;7.30;;
1204;SDS011;592;48.764;9.174;2022-12-07T00:35:57;15.20;;;8.90;;
1204;SDS011;592;48.764;9.174;2022-12-07T00:38:26;12.03;;;7.97;;
1204;SDS011;592;48.764;9.174;2022-12-07T00:40:55;13.70;;;7.30;;
1204;SDS011;592;48.764;9.174;2022-12-07T00:43:24;10.73;;;7.40;;
1204;SDS011;592;48.764;9.174;2022-12-07T00:45:51;13.83;;;7.80;;
1204;SDS011;592;48.764;9.174;2022-12-07T00:48:18;13.33;;;8.07;;
1204;SDS011;592;48.764;9.174;2022-12-07T00:50:45;13.07;;;8.70;;
1204;SDS011;592;48.764;9.174;2022-12-07T00:53:11;13.83;;;8.37;;
1204;SDS011;592;48.764;9.174;2022-12-07T00:55:38;13.23;;;8.43;;
1204;SDS011;592;48.764;9.174;2022-12-07T00:58:05;14.67;;;8.90;;
1204;SDS011;592;48.764;9.174;2022-12-07T01:00:33;12.97;;;8.20;;
1204;SDS011;592;48.764;9.174;2022-12-07T01:03:01;12.73;;;8.67;;
1204;SDS011;592;48.764;9.174;2022-12-07T01:05:28;18.20;;;8.53;;
1204;SDS011;592;48.764;9.174;2022-12-07T01:07:55;13.30;;;8.73;;
1204;SDS011;592;48.764;9.174;2022-12-07T01:10:21;16.90;;;8.87;;
1204;SDS011;592;48.764;9.174;2022-12-07T01:12:48;14.10;;;8.40;;
1204;SDS011;592;48.764;9.174;2022-12-07T01:15:15;13.20;;;8.03;;
1204;SDS011;592;48.764;9.174;2022-12-07T01:17:43;17.43;;;9.80;;
1204;SDS011;592;48.764;9.174;2022-12-07T01:20:11;14.20;;;8.63;;
1204;SDS011;592;48.764;9.174;2022-12-07T01:22:38;14.03;;;8.13;;
1204;SDS011;592;48.764;9.174;2022-12-07T01:25:06;15.03;;;8.37;;
1204;SDS011;592;48.764;9.174;2022-12-07T01:27:34;14.87;;;9.00;;
1204;SDS011;592;48.764;9.174;2022-12-07T01:30:02;15.87;;;9.77;;
1204;SDS011;592;48.764;9.174;2022-12-07T01:32:31;13.70;;;8.67;;
1204;SDS011;592;48.764;9.174;2022-12-07T01:34:59;15.10;;;8.63;;
1204;SDS011;592;48.764;9.174;2022-12-07T01:37:26;13.03;;;8.23;;
1204;SDS011;592;48.764;9.174;2022-12-07T01:39:52;17.00;;;8.73;;
1204;SDS011;592;48.764;9.174;2022-12-07T01:42:19;16.70;;;9.30;;
1204;SDS011;592;48.764;9.174;2022-12-07T01:48:02;16.03;;;10.03;;
1204;SDS011;592;48.764;9.174;2022-12-07T01:50:32;14.50;;;9.67;;
1204;SDS011;592;48.764;9.174;2022-12-07T01:53:00;14.17;;;7.70;;
1204;SDS011;592;48.764;9.174;2022-12-07T01:55:29;14.47;;;8.30;;
1204;SDS011;592;48.764;9.174;2022-12-07T01:57:56;14.93;;;8.07;;
1204;SDS011;592;48.764;9.174;2022-12-07T02:00:23;14.07;;;8.80;;
1204;SDS011;592;48.764;9.174;2022-12-07T02:02:51;14.10;;;8.87;;
1204;SDS011;592;48.764;9.174;2022-12-07T02:05:21;15.53;;;8.90;;
1204;SDS011;592;48.764;9.174;2022-12-07T02:07:52;14.97;;;8.80;;
1204;SDS011;592;48.764;9.174;2022-12-07T02:10:22;13.00;;;8.10;;
1204;SDS011;592;48.764;9.174;2022-12-07T02:12:52;13.67;;;7.93;;
1204;SDS011;592;48.764;9.174;2022-12-07T02:15:22;13.70;;;8.53;;
1204;SDS011;592;48.764;9.174;2022-12-07T02:17:55;16.33;;;9.37;;
1204;SDS011;592;48.764;9.174;2022-12-07T02:20:28;14.20;;;8.03;;
1204;SDS011;592;48.764;9.174;2022-12-07T02:23:04;14.07;;;8.80;;
1204;SDS011;592;48.764;9.174;2022-12-07T02:25:55;16.07;;;8.83;;
1204;SDS011;592;48.764;9.174;2022-12-07T02:28:33;14.27;;;8.50;;
1204;SDS011;592;48.764;9.174;2022-12-07T02:31:04;15.20;;;9.50;;
1204;SDS011;592;48.764;9.174;2022-12-07T02:33:36;15.10;;;9.50;;
1204;SDS011;592;48.764;9.174;2022-12-07T02:36:08;12.33;;;7.23;;
1204;SDS011;592;48.764;9.174;2022-12-07T02:38:39;15.33;;;8.43;;
1204;SDS011;592;48.764;9.174;2022-12-07T02:41:12;12.70;;;7.80;;
1204;SDS011;592;48.764;9.174;2022-12-07T02:43:44;13.50;;;8.10;;
1204;SDS011;592;48.764;9.174;2022-12-07T02:46:16;14.67;;;7.77;;
1204;SDS011;592;48.764;9.174;2022-12-07T02:48:46;15.67;;;8.00;;
1204;SDS011;592;48.764;9.174;2022-12-07T02:51:16;15.63;;;8.07;;
1204;SDS011;592;48.764;9.174;2022-12-07T02:53:44;14.13;;;7.90;;
1204;SDS011;592;48.764;9.174;2022-12-07T02:56:12;13.43;;;7.67;;
1204;SDS011;592;48.764;9.174;2022-12-07T02:58:49;14.00;;;7.90;;
1204;SDS011;592;48.764;9.174;2022-12-07T03:01:25;12.93;;;8.13;;
1204;SDS011;592;48.764;9.174;2022-12-07T03:03:58;13.27;;;7.00;;
1204;SDS011;592;48.764;9.174;2022-12-07T03:06:34;12.40;;;7.30;;
1204;SDS011;592;48.764;9.174;2022-12-07T03:09:07;13.70;;;7.67;;
1204;SDS011;592;48.764;9.174;2022-12-07T03:11:41;11.77;;;7.30;;
1204;SDS011;592;48.764;9.174;2022-12-07T03:14:13;14.00;;;7.80;;
1204;SDS011;592;48.764;9.174;2022-12-07T03:16:47;13.57;;;7.90;;
1204;SDS011;592;48.764;9.174;2022-12-07T03:19:19;13.90;;;8.37;;
1204;SDS011;592;48.764;9.174;2022-12-07T03:21:48;12.80;;;7.83;;
1204;SDS011;592;48.764;9.174;2022-12-07T03:24:20;12.60;;;7.80;;
1204;SDS011;592;48.764;9.174;2022-12-07T03:26:50;12.23;;;7.40;;
1204;SDS011;592;48.764;9.174;2022-12-07T03:29:21;12.20;;;7.20;;
1204;SDS011;592;48.764;9.174;2022-12-07T03:31:55;15.50;;;7.97;;
1204;SDS011;592;48.764;9.174;2022-12-07T03:34:27;14.53;;;7.60;;
1204;SDS011;592;48.764;9.174;2022-12-07T03:36:57;10.77;;;6.73;;
1204;SDS011;592;48.764;9.174;2022-12-07T03:39:29;12.77;;;7.37;;
1204;SDS011;592;48.764;9.174;2022-12-07T03:42:00;13.00;;;8.10;;
1204;SDS011;592;48.764;9.174;2022-12-07T03:44:30;15.03;;;7.27;;
1204;SDS011;592;48.764;9.174;2022-12-07T03:46:59;12.43;;;7.80;;
1204;SDS011;592;48.764;9.174;2022-12-07T03:49:30;15.10;;;7.77;;
1204;SDS011;592;48.764;9.174;2022-12-07T03:52:05;12.50;;;7.47;;
1204;SDS011;592;48.764;9.174;2022-12-07T03:54:39;11.90;;;7.40;;
1204;SDS011;592;48.764;9.174;2022-12-07T03:57:12;11.40;;;7.13;;
1204;SDS011;592;48.764;9.174;2022-12-07T03:59:39;12.10;;;7.00;;
1204;SDS011;592;48.764;9.174;2022-12-07T04:02:08;13.60;;;8.03;;
1204;SDS011;592;48.764;9.174;2022-12-07T04:04:38;12.93;;;7.37;;
1204;SDS011;592;48.764;9.174;2022-12-07T04:07:06;13.20;;;7.83;;
1204;SDS011;592;48.764;9.174;2022-12-07T04:09:32;15.00;;;7.20;;
1204;SDS011;592;48.764;9.174;2022-12-07T04:11:59;11.47;;;7.20;;
1204;SDS011;592;48.764;9.174;2022-12-07T04:14:26;13.20;;;7.67;;
1204;SDS011;592;48.764;9.174;2022-12-07T04:16:54;12.50;;;6.77;;
1204;SDS011;592;48.764;9.174;2022-12-07T04:19:24;12.30;;;7.57;;
1204;SDS011;592;48.764;9.174;2022-12-07T04:21:53;14.40;;;7.50;;
1204;SDS011;592;48.764;9.174;2022-12-07T04:24:19;10.77;;;6.80;;
1204;SDS011;592;48.764;9.174;2022-12-07T04:26:46;12.50;;;6.90;;
1204;SDS011;592;48.764;9.174;2022-12-07T04:29:13;11.07;;;6.43;;
1204;SDS011;592;48.764;9.174;2022-12-07T04:31:40;12.43;;;7.43;;
1204;SDS011;592;48.764;9.174;2022-12-07T04:34:07;10.97;;;6.97;;
1204;SDS011;592;48.764;9.174;2022-12-07T04:36:35;10.70;;;6.53;;
1204;SDS011;592;48.764;9.174;2022-12-07T04:39:03;11.90;;;6.30;;
1204;SDS011;592;48.764;9.174;2022-12-07T04:41:31;11.03;;;5.90;;
1204;SDS011;592;48.764;9.174;2022-12-07T04:43:59;10.13;;;5.20;;
1204;SDS011;592;48.764;9.174;2022-12-07T04:46:27;10.97;;;5.27;;
1204;SDS011;592;48.764;9.174;2022-12-07T04:48:56;9.93;;;5.03;;
1204;SDS011;592;48.764;9.174;2022-12-07T04:51:24;9.37;;;5.70;;
1204;SDS011;592;48.764;9.174;2022-12-07T04:53:53;9.20;;;5.33;;
1204;SDS011;592;48.764;9.174;2022-12-07T04:56:21;8.70;;;5.07;;
1204;SDS011;592;48.764;9.174;2022-12-07T04:58:48;10.70;;;5.77;;
1204;SDS011;592;48.764;9.174;2022-12-07T05:01:16;9.83;;;4.90;;
1204;SDS011;592;48.764;9.174;2022-12-07T05:03:43;8.33;;;4.80;;
1204;SDS011;592;48.764;9.174;2022-12-07T05:06:10;7.27;;;4.43;;
1204;SDS011;592;48.764;9.174;2022-12-07T05:08:37;9.37;;;5.10;;
1204;SDS011;592;48.764;9.174;2022-12-07T05:11:06;8.10;;;4.67;;
1204;SDS011;592;48.764;9.174;2022-12-07T05:13:34;9.13;;;5.30;;
1204;SDS011;592;48.764;9.174;2022-12-07T05:16:01;8.70;;;4.27;;
1204;SDS011;592;48.764;9.174;2022-12-07T05:18:28;7.23;;;4.13;;
1204;SDS011;592;48.764;9.174;2022-12-07T05:20:55;10.90;;;4.60;;
1204;SDS011;592;48.764;9.174;2022-12-07T05:23:21;7.80;;;4.30;;
1204;SDS011;592;48.764;9.174;2022-12-07T05:25:48;8.27;;;5.07;;
1204;SDS011;592;48.764;9.174;2022-12-07T05:28:16;9.17;;;5.50;;
1204;SDS011;592;48.764;9.174;2022-12-07T05:30:43;7.97;;;4.53;;
1204;SDS011;592;48.764;9.174;2022-12-07T05:33:09;11.47;;;4.80;;
1204;SDS011;592;48.764;9.174;2022-12-07T05:35:36;7.67;;;4.40;;
1204;SDS011;592;48.764;9.174;2022-12-07T05:38:03;8.93;;;5.10;;
1204;SDS011;592;48.764;9.174;2022-12-07T05:40:30;9.33;;;5.47;;
1204;SDS011;592;48.764;9.174;2022-12-07T05:42:57;8.80;;;4.83;;
1204;SDS011;592;48.764;9.174;2022-12-07T05:45:25;12.33;;;5.43;;
1204;SDS011;592;48.764;9.174;2022-12-07T05:47:52;9.97;;;5.73;;
1204;SDS011;592;48.764;9.174;2022-12-07T05:50:18;8.60;;;5.07;;
1204;SDS011;592;48.764;9.174;2022-12-07T05:52:45;9.70;;;5.63;;
1204;SDS011;592;48.764;9.174;2022-12-07T05:55:12;11.30;;;5.97;;
1204;SDS011;592;48.764;9.174;2022-12-07T05:57:39;10.47;;;5.47;;
1204;SDS011;592;48.764;9.174;2022-12-07T06:00:27;10.80;;;6.20;;
1204;SDS011;592;48.764;9.174;2022-12-07T06:02:53;11.43;;;5.97;;
1204;SDS011;592;48.764;9.174;2022-12-07T06:05:19;10.13;;;6.03;;
1204;SDS011;592;48.764;9.174;2022-12-07T06:07:46;12.60;;;5.77;;
1204;SDS011;592;48.764;9.174;2022-12-07T06:10:13;10.30;;;6.43;;
1204;SDS011;592;48.764;9.174;2022-12-07T06:12:40;11.50;;;6.60;;
1204;SDS011;592;48.764;9.174;2022-12-07T06:15:08;12.02;;;6.85;;
1204;SDS011;592;48.764;9.174;2022-12-07T06:17:39;11.00;;;6.87;;
1204;SDS011;592;48.764;9.174;2022-12-07T06:20:06;8.90;;;5.70;;
1204;SDS011;592;48.764;9.174;2022-12-07T06:22:33;9.73;;;5.83;;
1204;SDS011;592;48.764;9.174;2022-12-07T06:25:00;11.00;;;6.10;;
1204;SDS011;592;48.764;9.174;2022-12-07T06:27:27;10.80;;;6.83;;
1204;SDS011;592;48.764;9.174;2022-12-07T06:29:54;10.73;;;6.03;;
1204;SDS011;592;48.764;9.174;2022-12-07T06:32:20;10.57;;;5.87;;
1204;SDS011;592;48.764;9.174;2022-12-07T06:34:48;13.23;;;7.00;;
1204;SDS011;592;48.764;9.174;2022-12-07T06:37:15;11.50;;;6.27;;
1204;SDS011;592;48.764;9.174;2022-12-07T06:39:42;11.13;;;6.20;;
1204;SDS011;592;48.764;9.174;2022-12-07T06:42:09;11.80;;;5.90;;
1204;SDS011;592;48.764;9.174;2022-12-07T06:44:35;9.40;;;5.07;;
1204;SDS011;592;48.764;9.174;2022-12-07T06:47:02;9.30;;;5.30;;
1204;SDS011;592;48.764;9.174;2022-12-07T06:49:29;10.60;;;6.10;;
1204;SDS011;592;48.764;9.174;2022-12-07T06:51:57;19.10;;;7.60;;
1204;SDS011;592;48.764;9.174;2022-12-07T06:54:24;115.93;;;20.90;;
1204;SDS011;592;48.764;9.174;2022-12-07T06:56:51;60.70;;;10.90;;
1204;SDS011;592;48.764;9.174;2022-12-07T06:59:17;70.13;;;14.20;;
1204;SDS011;592;48.764;9.174;2022-12-07T07:01:44;21.17;;;7.00;;
1204;SDS011;592;48.764;9.174;2022-12-07T07:04:11;10.40;;;5.17;;
1204;SDS011;592;48.764;9.174;2022-12-07T07:06:37;10.90;;;5.47;;
1204;SDS011;592;48.764;9.174;2022-12-07T07:09:05;8.60;;;4.73;;
1204;SDS011;592;48.764;9.174;2022-12-07T07:11:34;9.70;;;5.30;;
1204;SDS011;592;48.764;9.174;2022-12-07T07:14:01;14.50;;;5.53;;
1204;SDS011;592;48.764;9.174;2022-12-07T07:16:28;10.80;;;5.90;;
1204;SDS011;592;48.764;9.174;2022-12-07T07:18:55;10.97;;;6.23;;
1204;SDS011;592;48.764;9.174;2022-12-07T07:21:22;10.00;;;5.70;;
1204;SDS011;592;48.764;9.174;2022-12-07T07:23:49;9.10;;;5.40;;
1204;SDS011;592;48.764;9.174;2022-12-07T07:26:18;7.70;;;4.90;;
1204;SDS011;592;48.764;9.174;2022-12-07T07:28:45;10.20;;;5.50;;
1204;SDS011;592;48.764;9.174;2022-12-07T07:31:11;11.47;;;5.90;;
1204;SDS011;592;48.764;9.174;2022-12-07T07:33:38;10.90;;;5.90;;
1204;SDS011;592;48.764;9.174;2022-12-07T07:36:05;10.73;;;5.90;;
1204;SDS011;592;48.764;9.174;2022-12-07T07:38:33;15.17;;;5.17;;
1204;SDS011;592;48.764;9.174;2022-12-07T07:40:59;12.67;;;5.57;;
1204;SDS011;592;48.764;9.174;2022-12-07T07:43:27;11.03;;;5.60;;
1204;SDS011;592;48.764;9.174;2022-12-07T07:45:54;9.60;;;5.90;;
1204;SDS011;592;48.764;9.174;2022-12-07T07:48:21;9.30;;;5.40;;
1204;SDS011;592;48.764;9.174;2022-12-07T07:50:50;9.60;;;6.10;;
1204;SDS011;592;48.764;9.174;2022-12-07T07:53:17;10.97;;;6.50;;
1204;SDS011;592;48.764;9.174;2022-12-07T07:55:49;9.57;;;5.20;;
1204;SDS011;592;48.764;9.174;2022-12-07T07:58:17;8.90;;;5.73;;
1204;SDS011;592;48.764;9.174;2022-12-07T08:00:45;10.70;;;5.57;;
1204;SDS011;592;48.764;9.174;2022-12-07T08:03:11;9.00;;;5.57;;
1204;SDS011;592;48.764;9.174;2022-12-07T08:05:38;9.93;;;5.53;;
1204;SDS011;592;48.764;9.174;2022-12-07T08:08:05;9.43;;;5.67;;
1204;SDS011;592;48.764;9.174;2022-12-07T08:10:32;12.63;;;5.63;;
1204;SDS011;592;48.764;9.174;2022-12-07T08:13:00;10.27;;;5.70;;
1204;SDS011;592;48.764;9.174;2022-12-07T08:15:40;11.77;;;5.90;;
1204;SDS011;592;48.764;9.174;2022-12-07T08:18:09;13.27;;;7.40;;
1204;SDS011;592;48.764;9.174;2022-12-07T08:20:36;11.33;;;5.97;;
1204;SDS011;592;48.764;9.174;2022-12-07T08:23:04;9.77;;;5.53;;
1204;SDS011;592;48.764;9.174;2022-12-07T08:25:31;10.43;;;5.20;;
1204;SDS011;592;48.764;9.174;2022-12-07T08:27:58;9.70;;;5.80;;
1204;SDS011;592;48.764;9.174;2022-12-07T08:30:25;16.33;;;6.10;;
1204;SDS011;592;48.764;9.174;2022-12-07T08:32:52;9.73;;;4.97;;
1204;SDS011;592;48.764;9.174;2022-12-07T08:35:20;9.90;;;5.43;;
1204;SDS011;592;48.764;9.174;2022-12-07T08:37:47;12.07;;;5.70;;
1204;SDS011;592;48.764;9.174;2022-12-07T08:40:14;9.83;;;5.27;;
1204;SDS011;592;48.764;9.174;2022-12-07T08:42:44;10.70;;;6.13;;
1204;SDS011;592;48.764;9.174;2022-12-07T08:45:14;10.30;;;5.33;;
1204;SDS011;592;48.764;9.174;2022-12-07T08:47:44;12.33;;;6.57;;
1204;SDS011;592;48.764;9.174;2022-12-07T08:50:14;10.50;;;5.40;;
1204;SDS011;592;48.764;9.174;2022-12-07T08:52:42;9.20;;;4.80;;
1204;SDS011;592;48.764;9.174;2022-12-07T08:55:09;11.30;;;6.40;;
1204;SDS011;592;48.764;9.174;2022-12-07T08:57:38;9.07;;;5.60;;
1204;SDS011;592;48.764;9.174;2022-12-07T09:00:06;11.93;;;5.70;;
1204;SDS011;592;48.764;9.174;2022-12-07T09:02:34;11.20;;;5.47;;
1204;SDS011;592;48.764;9.174;2022-12-07T09:05:01;10.17;;;5.37;;
1204;SDS011;592;48.764;9.174;2022-12-07T09:07:28;11.70;;;4.70;;
1204;SDS011;592;48.764;9.174;2022-12-07T09:09:59;10.70;;;5.90;;
1204;SDS011;592;48.764;9.174;2022-12-07T09:12:26;10.00;;;5.20;;
1204;SDS011;592;48.764;9.174;2022-12-07T09:14:53;10.40;;;4.67;;
1204;SDS011;592;48.764;9.174;2022-12-07T09:17:20;8.10;;;4.80;;
1204;SDS011;592;48.764;9.174;2022-12-07T09:19:47;10.17;;;5.37;;
1204;SDS011;592;48.764;9.174;2022-12-07T09:22:14;10.00;;;4.70;;
1204;SDS011;592;48.764;9.174;2022-12-07T09:24:40;9.80;;;4.73;;
1204;SDS011;592;48.764;9.174;2022-12-07T09:27:09;10.13;;;5.00;;
1204;SDS011;592;48.764;9.174;2022-12-07T09:29:36;8.77;;;4.63;;
1204;SDS011;592;48.764;9.174;2022-12-07T09:32:03;9.57;;;4.80;;
1204;SDS011;592;48.764;9.174;2022-12-07T09:34:30;7.77;;;4.00;;
1204;SDS011;592;48.764;9.174;2022-12-07T09:36:57;7.10;;;3.73;;
1204;SDS011;592;48.764;9.174;2022-12-07T09:39:25;10.00;;;4.73;;
1204;SDS011;592;48.764;9.174;2022-12-07T09:41:52;7.30;;;4.00;;
1204;SDS011;592;48.764;9.174;2022-12-07T09:44:21;9.73;;;4.00;;
1204;SDS011;592;48.764;9.174;2022-12-07T09:46:50;8.13;;;4.17;;
1204;SDS011;592;48.764;9.174;2022-12-07T09:49:19;7.53;;;3.70;;
1204;SDS011;592;48.764;9.174;2022-12-07T09:51:47;7.07;;;4.20;;
1204;SDS011;592;48.764;9.174;2022-12-07T09:54:14;7.10;;;4.33;;
1204;SDS011;592;48.764;9.174;2022-12-07T09:56:42;7.73;;;4.10;;
1204;SDS011;592;48.764;9.174;2022-12-07T09:59:12;7.30;;;3.60;;
1204;SDS011;592;48.764;9.174;2022-12-07T10:01:44;11.07;;;4.37;;
1204;SDS011;592;48.764;9.174;2022-12-07T10:04:14;11.20;;;4.10;;
1204;SDS011;592;48.764;9.174;2022-12-07T10:06:44;6.20;;;3.30;;
1204;SDS011;592;48.764;9.174;2022-12-07T10:09:13;7.03;;;3.63;;
1204;SDS011;592;48.764;9.174;2022-12-07T10:12:00;6.70;;;3.70;;
1204;SDS011;592;48.764;9.174;2022-12-07T10:14:29;7.30;;;4.20;;
1204;SDS011;592;48.764;9.174;2022-12-07T10:16:58;7.73;;;3.83;;
1204;SDS011;592;48.764;9.174;2022-12-07T10:19:27;7.43;;;3.73;;
1204;SDS011;592;48.764;9.174;2022-12-07T10:21:59;8.30;;;3.83;;
1204;SDS011;592;48.764;9.174;2022-12-07T10:24:31;7.97;;;4.20;;
1204;SDS011;592;48.764;9.174;2022-12-07T10:26:58;7.67;;;4.03;;
1204;SDS011;592;48.764;9.174;2022-12-07T10:29:28;8.30;;;4.10;;
1204;SDS011;592;48.764;9.174;2022-12-07T10:31:57;8.83;;;4.30;;
1204;SDS011;592;48.764;9.174;2022-12-07T10:34:27;7.20;;;4.33;;
1204;SDS011;592;48.764;9.174;2022-12-07T10:37:07;8.47;;;3.00;;
1204;SDS011;592;48.764;9.174;2022-12-07T10:39:42;8.03;;;4.03;;
1204;SDS011;592;48.764;9.174;2022-12-07T10:42:17;6.70;;;3.30;;
1204;SDS011;592;48.764;9.174;2022-12-07T10:44:45;7.80;;;3.77;;
1204;SDS011;592;48.764;9.174;2022-12-07T10:47:31;7.97;;;3.60;;
1204;SDS011;592;48.764;9.174;2022-12-07T10:56:06;6.43;;;3.70;;
1204;SDS011;592;48.764;9.174;2022-12-07T10:58:59;12.23;;;4.00;;
1204;SDS011;592;48.764;9.174;2022-12-07T11:01:41;6.73;;;3.57;;
1204;SDS011;592;48.764;9.174;2022-12-07T11:04:20;7.57;;;4.33;;
1204;SDS011;592;48.764;9.174;2022-12-07T11:06:57;5.67;;;3.13;;
1204;SDS011;592;48.764;9.174;2022-12-07T11:12:26;7.10;;;3.60;;
1204;SDS011;592;48.764;9.174;2022-12-07T11:15:01;7.90;;;3.67;;
1204;SDS011;592;48.764;9.174;2022-12-07T11:17:41;6.60;;;3.17;;
1204;SDS011;592;48.764;9.174;2022-12-07T11:20:32;5.50;;;2.80;;
1204;SDS011;592;48.764;9.174;2022-12-07T11:23:09;5.90;;;2.80;;
1204;SDS011;592;48.764;9.174;2022-12-07T11:25:45;6.90;;;3.33;;
1204;SDS011;592;48.764;9.174;2022-12-07T11:28:22;4.87;;;2.73;;
1204;SDS011;592;48.764;9.174;2022-12-07T11:31:02;5.93;;;3.10;;
1204;SDS011;592;48.764;9.174;2022-12-07T11:33:38;5.53;;;2.97;;
1204;SDS011;592;48.764;9.174;2022-12-07T11:36:16;6.30;;;2.60;;
1204;SDS011;592;48.764;9.174;2022-12-07T11:39:03;5.27;;;2.67;;
1204;SDS011;592;48.764;9.174;2022-12-07T11:41:38;5.30;;;2.80;;
1204;SDS011;592;48.764;9.174;2022-12-07T11:44:12;4.83;;;2.60;;
1204;SDS011;592;48.764;9.174;2022-12-07T11:46:53;5.60;;;2.67;;
1204;SDS011;592;48.764;9.174;2022-12-07T11:49:27;7.07;;;2.60;;
1204;SDS011;592;48.764;9.174;2022-12-07T11:52:30;4.43;;;2.30;;
1204;SDS011;592;48.764;9.174;2022-12-07T11:55:17;5.33;;;2.57;;
1204;SDS011;592;48.764;9.174;2022-12-07T11:57:54;33.83;;;11.13;;
1204;SDS011;592;48.764;9.174;2022-12-07T12:00:29;6.77;;;3.20;;
1204;SDS011;592;48.764;9.174;2022-12-07T12:02:58;6.30;;;3.53;;
1204;SDS011;592;48.764;9.174;2022-12-07T12:08:04;7.07;;;3.43;;
1204;SDS011;592;48.764;9.174;2022-12-07T12:10:42;4.87;;;2.60;;
1204;SDS011;592;48.764;9.174;2022-12-07T12:16:31;4.47;;;2.13;;
1204;SDS011;592;48.764;9.174;2022-12-07T12:19:17;5.43;;;2.90;;
1204;SDS011;592;48.764;9.174;2022-12-07T12:21:53;5.80;;;3.30;;
1204;SDS011;592;48.764;9.174;2022-12-07T12:24:26;6.20;;;3.77;;
1204;SDS011;592;48.764;9.174;2022-12-07T12:26:56;7.20;;;4.13;;
1204;SDS011;592;48.764;9.174;2022-12-07T12:29:30;9.00;;;4.87;;
1204;SDS011;592;48.764;9.174;2022-12-07T12:32:07;8.10;;;4.80;;
1204;SDS011;592;48.764;9.174;2022-12-07T12:34:39;8.10;;;4.90;;
1204;SDS011;592;48.764;9.174;2022-12-07T12:37:38;7.47;;;5.23;;
1204;SDS011;592;48.764;9.174;2022-12-07T12:40:39;9.73;;;6.03;;
1204;SDS011;592;48.764;9.174;2022-12-07T12:46:35;9.60;;;5.43;;
1204;SDS011;592;48.764;9.174;2022-12-07T12:49:24;9.23;;;5.10;;
1204;SDS011;592;48.764;9.174;2022-12-07T12:55:16;6.60;;;4.03;;
1204;SDS011;592;48.764;9.174;2022-12-07T13:10:25;8.80;;;4.30;;
1204;SDS011;592;48.764;9.174;2022-12-07T13:13:05;10.00;;;4.80;;
1204;SDS011;592;48.764;9.174;2022-12-07T13:15:51;8.50;;;4.40;;
1204;SDS011;592;48.764;9.174;2022-12-07T13:18:24;9.13;;;4.13;;
1204;SDS011;592;48.764;9.174;2022-12-07T13:24:19;9.17;;;4.60;;
1204;SDS011;592;48.764;9.174;2022-12-07T13:27:06;6.80;;;4.20;;
1204;SDS011;592;48.764;9.174;2022-12-07T13:29:56;9.30;;;4.53;;
1204;SDS011;592;48.764;9.174;2022-12-07T13:32:27;7.20;;;3.70;;
1204;SDS011;592;48.764;9.174;2022-12-07T13:34:56;6.90;;;4.07;;
1204;SDS011;592;48.764;9.174;2022-12-07T13:37:24;12.00;;;5.03;;
1204;SDS011;592;48.764;9.174;2022-12-07T13:39:54;7.97;;;4.20;;
1204;SDS011;592;48.764;9.174;2022-12-07T13:42:24;13.03;;;4.70;;
1204;SDS011;592;48.764;9.174;2022-12-07T13:44:52;9.37;;;4.03;;
1204;SDS011;592;48.764;9.174;2022-12-07T13:47:30;6.90;;;3.57;;
1204;SDS011;592;48.764;9.174;2022-12-07T13:50:20;5.93;;;3.30;;
1204;SDS011;592;48.764;9.174;2022-12-07T13:52:49;6.20;;;3.63;;
1204;SDS011;592;48.764;9.174;2022-12-07T13:55:18;7.57;;;3.80;;
1204;SDS011;592;48.764;9.174;2022-12-07T13:57:47;10.37;;;4.70;;
1204;SDS011;592;48.764;9.174;2022-12-07T14:00:31;5.67;;;3.03;;
1204;SDS011;592;48.764;9.174;2022-12-07T14:03:01;7.77;;;4.40;;
1204;SDS011;592;48.764;9.174;2022-12-07T14:05:30;7.50;;;3.57;;
1204;SDS011;592;48.764;9.174;2022-12-07T14:07:58;10.90;;;3.50;;
1204;SDS011;592;48.764;9.174;2022-12-07T14:10:27;8.50;;;3.77;;
1204;SDS011;592;48.764;9.174;2022-12-07T14:13:21;5.27;;;3.20;;
1204;SDS011;592;48.764;9.174;2022-12-07T14:16:32;8.80;;;4.10;;
1204;SDS011;592;48.764;9.174;2022-12-07T14:19:05;9.00;;;3.43;;
1204;SDS011;592;48.764;9.174;2022-12-07T14:22:07;5.73;;;2.97;;
1204;SDS011;592;48.764;9.174;2022-12-07T14:24:50;7.07;;;2.97;;
1204;SDS011;592;48.764;9.174;2022-12-07T14:27:20;6.33;;;3.23;;
1204;SDS011;592;48.764;9.174;2022-12-07T14:29:56;6.07;;;3.53;;
1204;SDS011;592;48.764;9.174;2022-12-07T14:32:24;7.33;;;3.13;;
1204;SDS011;592;48.764;9.174;2022-12-07T14:35:02;5.77;;;3.23;;
1204;SDS011;592;48.764;9.174;2022-12-07T14:37:37;6.80;;;3.23;;
1204;SDS011;592;48.764;9.174;2022-12-07T14:43:52;9.07;;;4.47;;
1204;SDS011;592;48.764;9.174;2022-12-07T14:46:23;11.70;;;5.87;;
1204;SDS011;592;48.764;9.174;2022-12-07T14:51:32;16.87;;;6.50;;
1204;SDS011;592;48.764;9.174;2022-12-07T14:53:59;8.20;;;4.77;;
1204;SDS011;592;48.764;9.174;2022-12-07T14:56:26;8.13;;;3.97;;
1204;SDS011;592;48.764;9.174;2022-12-07T14:58:54;11.87;;;4.47;;
1204;SDS011;592;48.764;9.174;2022-12-07T15:01:22;7.20;;;4.20;;
1204;SDS011;592;48.764;9.174;2022-12-07T15:03:49;8.90;;;4.47;;
1204;SDS011;592;48.764;9.174;2022-12-07T15:06:17;7.13;;;4.30;;
1204;SDS011;592;48.764;9.174;2022-12-07T15:08:46;9.93;;;4.73;;
1204;SDS011;592;48.764;9.174;2022-12-07T15:11:14;7.57;;;4.10;;
1204;SDS011;592;48.764;9.174;2022-12-07T15:13:41;9.50;;;5.40;;
1204;SDS011;592;48.764;9.174;2022-12-07T15:16:26;7.90;;;4.63;;
1204;SDS011;592;48.764;9.174;2022-12-07T15:18:53;9.40;;;5.20;;
1204;SDS011;592;48.764;9.174;2022-12-07T15:21:21;9.70;;;6.07;;
1204;SDS011;592;48.764;9.174;2022-12-07T15:23:49;14.13;;;7.47;;
1204;SDS011;592;48.764;9.174;2022-12-07T15:26:17;9.83;;;5.40;;
1204;SDS011;592;48.764;9.174;2022-12-07T15:28:44;10.40;;;4.90;;
1204;SDS011;592;48.764;9.174;2022-12-07T15:31:18;7.10;;;4.37;;
1204;SDS011;592;48.764;9.174;2022-12-07T15:34:00;8.20;;;4.60;;
1204;SDS011;592;48.764;9.174;2022-12-07T15:36:27;9.70;;;4.57;;
1204;SDS011;592;48.764;9.174;2022-12-07T15:49:18;9.43;;;4.80;;
1204;SDS011;592;48.764;9.174;2022-12-07T15:51:47;8.43;;;5.00;;
1204;SDS011;592;48.764;9.174;2022-12-07T15:54:18;11.00;;;5.33;;
1204;SDS011;592;48.764;9.174;2022-12-07T15:56:46;11.90;;;5.93;;
1204;SDS011;592;48.764;9.174;2022-12-07T15:59:14;9.50;;;4.73;;
1204;SDS011;592;48.764;9.174;2022-12-07T16:01:47;10.10;;;4.93;;
1204;SDS011;592;48.764;9.174;2022-12-07T16:04:23;8.70;;;5.23;;
1204;SDS011;592;48.764;9.174;2022-12-07T16:06:52;8.00;;;4.43;;
1204;SDS011;592;48.764;9.174;2022-12-07T16:09:19;11.00;;;6.00;;
1204;SDS011;592;48.764;9.174;2022-12-07T16:11:47;9.23;;;4.93;;
1204;SDS011;592;48.764;9.174;2022-12-07T16:20:17;8.03;;;5.00;;
1204;SDS011;592;48.764;9.174;2022-12-07T16:25:36;10.63;;;6.30;;
1204;SDS011;592;48.764;9.174;2022-12-07T16:31:26;10.43;;;5.67;;
1204;SDS011;592;48.764;9.174;2022-12-07T16:33:56;13.77;;;7.00;;
1204;SDS011;592;48.764;9.174;2022-12-07T16:39:03;11.93;;;7.23;;
1204;SDS011;592;48.764;9.174;2022-12-07T16:44:00;12.53;;;6.43;;
1204;SDS011;592;48.764;9.174;2022-12-07T16:46:35;15.97;;;8.00;;
1204;SDS011;592;48.764;9.174;2022-12-07T16:51:45;15.40;;;7.03;;
1204;SDS011;592;48.764;9.174;2022-12-07T16:54:17;15.67;;;8.10;;
1204;SDS011;592;48.764;9.174;2022-12-07T16:56:43;12.77;;;7.33;;
1204;SDS011;592;48.764;9.174;2022-12-07T16:59:10;12.30;;;7.53;;
1204;SDS011;592;48.764;9.174;2022-12-07T17:01:37;13.60;;;6.70;;